Flight Track Log - Related Links

Times and Time Zones

All times are in EDT time to prevent confusion due to time zone crossing. See the DAL681 flight status page for this flight to view local times or setup timezone preferences in your user account.

Time Position Orientation Groundspeed Altitude Reporting Facility
EDT Latitude Longitude Course Direction KTS MPH feet Rate Location/Type
Wed 10:39:02 AM 33.6333 -84.4833 145° Southeast 187 215 2,600  Level Atlanta TRACON
Wed 10:39:56 AM 33.6333 -84.5500 270° West 255 293 4,600 2,500 Climbing Atlanta TRACON
Wed 10:41:00 AM 33.3440 -84.2272 140° Southeast  Level FlightAware Approximate
Wed 10:41:02 AM 33.6333 -84.6500 270° West 253 291 7,600  Level Atlanta TRACON
Wed 10:42:00 AM 33.2412 -84.1243 140° Southeast  Level FlightAware Approximate
Wed 10:42:02 AM 33.5833 -84.7000 220° Southwest 255 293 9,800  Level Atlanta TRACON
Wed 10:43:00 AM 33.1384 -84.0216 140° Southeast  Level FlightAware Approximate
Wed 10:43:41 AM 33.4564 -84.6911 177° South 271 312 10,200  Level Atlanta Center
Wed 10:44:00 AM 33.0370 -83.9279 145° Southeast  Level FlightAware Approximate
Wed 10:44:41 AM 33.3836 -84.6683 165° South 271 312 12,100  Level Atlanta Center
Wed 10:45:41 AM 33.3381 -84.5608 117° Southeast 283 326 12,800 1,150 Climbing Atlanta Center
Wed 10:46:41 AM 33.2864 -84.4414 117° Southeast 369 425 14,400 1,850 Climbing Atlanta Center
Wed 10:47:41 AM 33.2344 -84.3219 117° Southeast 401 461 16,500 1,800 Climbing Atlanta Center
Wed 10:48:41 AM 33.1806 -84.1978 117° Southeast 419 482 18,000 1,500 Climbing Atlanta Center
Wed 10:49:41 AM 33.1242 -84.0686 118° Southeast 426 490 19,500 1,350 Climbing Atlanta Center
Wed 10:50:41 AM 33.0658 -83.9569 122° Southeast 432 497 20,700 1,300 Climbing Atlanta Center
Wed 10:51:41 AM 32.9531 -83.8656 146° Southeast 427 491 22,100 1,400 Climbing Atlanta Center
Wed 10:52:41 AM 32.8483 -83.7767 144° Southeast 438 504 23,500 1,400 Climbing Atlanta Center
Wed 10:53:41 AM 32.7417 -83.6906 146° Southeast 458 527 24,900 1,150 Climbing Atlanta Center
Wed 10:54:41 AM 32.6392 -83.5972 143° Southeast 464 534 25,800 850 Climbing Atlanta Center
Wed 10:55:41 AM 32.5364 -83.4967 140° Southeast 470 541 26,600 750 Climbing Atlanta Center
Wed 10:56:41 AM 32.4336 -83.3892 139° Southeast 482 555 27,300 750 Climbing Atlanta Center
Wed 10:57:41 AM 32.3267 -83.2867 141° Southeast 487 560 28,100 1,000 Climbing Atlanta Center
Wed 10:58:41 AM 32.2194 -83.1772 139° Southeast 499 574 29,300 1,154 Climbing Atlanta Center
Wed 10:59:51 AM 32.0933 -83.0544 140° Southeast 501 577 30,600 877 Climbing Jacksonville Center
Wed 11:00:51 AM 31.9869 -82.9489 140° Southeast 501 577 31,200 600 Climbing Jacksonville Center
Wed 11:01:51 AM 31.8806 -82.8436 140° Southeast 501 577 31,800 400 Climbing Jacksonville Center
Wed 11:02:51 AM 31.7739 -82.7361 139° Southeast 501 577 32,000 100 Climbing Jacksonville Center
Wed 11:03:51 AM 31.6797 -82.6436 140° Southeast 502 578 32,000  Level Jacksonville Center
Wed 11:04:51 AM 31.5689 -82.5389 141° Southeast 502 578 32,000  Level Jacksonville Center
Wed 11:05:51 AM 31.4558 -82.4394 143° Southeast 507 583 32,000 -50 Level Jacksonville Center
Wed 11:06:51 AM 31.3281 -82.3381 146° Southeast 507 583 31,900  Descending Jacksonville Center
Wed 11:07:51 AM 31.2147 -82.2392 143° Southeast 512 589 32,000 50 Climbing Jacksonville Center
Wed 11:08:51 AM 31.1122 -82.1572 146° Southeast 512 589 32,000 200 Level Jacksonville Center
Wed 11:09:51 AM 30.9967 -82.0564 143° Southeast 512 589 32,400 550 Climbing Jacksonville Center
Wed 11:10:51 AM 30.8833 -81.9631 145° Southeast 512 589 33,100 650 Climbing Jacksonville Center
Wed 11:11:51 AM 30.7678 -81.8650 144° Southeast 512 589 33,700 450 Climbing Jacksonville Center
Wed 11:12:51 AM 30.6542 -81.7697 144° Southeast 512 589 34,000 100 Climbing Jacksonville Center
Wed 11:13:51 AM 30.5364 -81.6722 145° Southeast 512 589 33,900 -50 Descending Jacksonville Center
Wed 11:14:51 AM 30.4225 -81.5750 144° Southeast 512 589 33,900 50 Level Jacksonville Center
Wed 11:15:51 AM 30.3025 -81.4875 148° Southeast 512 589 34,000 50 Climbing Jacksonville Center
Wed 11:16:51 AM 30.1786 -81.4125 152° Southeast 507 583 34,000  Level Jacksonville Center
Wed 11:17:51 AM 30.0544 -81.3375 152° Southeast 507 583 34,000 -50 Level Jacksonville Center
Wed 11:18:51 AM 29.9303 -81.2606 152° Southeast 502 578 33,900 -50 Descending Jacksonville Center
Wed 11:19:51 AM 29.8042 -81.1861 153° Southeast 502 578 33,900  Level Jacksonville Center
Wed 11:20:51 AM 29.6822 -81.1139 153° Southeast 496 571 33,900 50 Level Jacksonville Center
Wed 11:21:51 AM 29.5578 -81.0375 152° Southeast 496 571 34,000  Climbing Jacksonville Center
Wed 11:24:51 AM 29.1789 -80.8114 152° Southeast 506 582 33,900 -25 Descending Miami Center
Wed 11:25:52 AM 29.0536 -80.7356 152° Southeast 518 596 33,900 50 Level Miami Center
Wed 11:26:51 AM 28.9481 -80.6253 138° Southeast 523 602 34,000 50 Climbing Miami Center
Wed 11:27:51 AM 28.8433 -80.4867 131° Southeast 533 613 34,000  Level Miami Center
Wed 11:28:51 AM 28.7461 -80.3603 131° Southeast 532 612 34,000  Level Miami Center
Wed 11:29:51 AM 28.6572 -80.2486 132° Southeast 520 598 34,000  Level Miami Center
Wed 11:30:51 AM 28.5497 -80.1108 132° Southeast 525 604 34,000  Level Miami Center
Wed 11:31:51 AM 28.4503 -79.9850 132° Southeast 525 604 34,000  Level Miami Center
Wed 11:32:52 AM 28.3628 -79.8742 132° Southeast 525 604 34,000  Level Miami Center
Wed 11:33:52 AM 28.2633 -79.7489 132° Southeast 525 604 34,000  Level Miami Center
Wed 11:34:52 AM 28.1675 -79.6239 131° Southeast 525 604 34,000 -50 Level Miami Center
Wed 11:35:51 AM 28.0656 -79.5014 133° Southeast 525 604 33,900 -50 Descending Miami Center
Wed 11:36:52 AM 27.9675 -79.3747 131° Southeast 530 610 33,900 50 Level Miami Center
Wed 11:37:51 AM 27.8611 -79.2431 132° Southeast 525 604 34,000 50 Climbing Miami Center
Wed 11:38:51 AM 27.7692 -79.1308 133° Southeast 532 612 34,000  Level Miami Center
Wed 11:39:51 AM 27.6708 -79.0069 132° Southeast 532 612 34,000 100 Level Miami Center
Wed 11:40:51 AM 27.5642 -78.8714 132° Southeast 531 611 34,200 496 Climbing Miami Center
Wed 11:41:52 AM 27.4656 -78.7481 132° Southeast 526 605 35,000 400 Climbing Miami Center
Wed 11:42:51 AM 27.3647 -78.6269 133° Southeast 526 605 35,000 -50 Level Miami Center
Wed 11:43:52 AM 27.2617 -78.5064 134° Southeast 526 605 34,900  Descending Miami Center
Wed 11:44:51 AM 27.1650 -78.3858 132° Southeast 526 605 35,000 50 Climbing Miami Center
Wed 11:45:51 AM 27.0681 -78.2633 132° Southeast 526 605 35,000  Level Miami Center
Wed 11:46:51 AM 26.9667 -78.1431 133° Southeast 524 603 35,000  Level Miami Center
Wed 11:47:51 AM 26.8717 -78.0208 131° Southeast 529 609 35,000  Level Miami Center
Wed 11:48:52 AM 26.7703 -77.8989 133° Southeast 523 602 35,000  Level Miami Center
Wed 11:49:51 AM 26.6706 -77.7817 134° Southeast 528 608 35,000  Level Miami Center
Wed 11:50:51 AM 26.5711 -77.6603 132° Southeast 533 613 35,000  Level Miami Center
Wed 11:51:51 AM 26.4714 -77.5411 133° Southeast 523 602 35,000  Level Miami Center
Wed 11:52:52 AM 26.3800 -77.4339 134° Southeast 528 608 35,000  Level Miami Center
Wed 11:53:52 AM 26.2800 -77.3106 132° Southeast 528 608 35,000  Level Miami Center
Wed 11:54:52 AM 26.1781 -77.1922 134° Southeast 528 608 35,000  Level Miami Center
Wed 11:55:51 AM 26.0781 -77.0692 132° Southeast 528 608 35,000  Level Miami Center
Wed 11:56:51 AM 25.9778 -76.9489 133° Southeast 528 608 35,000  Level Miami Center
Wed 11:57:51 AM 25.8775 -76.8311 133° Southeast 528 608 35,000  Level Miami Center
Wed 11:58:51 AM 25.7728 -76.7111 134° Southeast 528 608 35,000  Level Miami Center
Wed 11:59:51 AM 25.6725 -76.5889 132° Southeast 528 608 35,000  Level Miami Center
Wed 12:00:51 PM 25.5697 -76.4739 135° Southeast 528 608 35,000  Level Miami Center
Wed 12:01:52 PM 25.4692 -76.3547 133° Southeast 528 608 35,000  Level Miami Center
Wed 12:02:52 PM 25.3661 -76.2331 133° Southeast 528 608 35,000  Level Miami Center
Wed 12:03:51 PM 25.2611 -76.1097 133° Southeast 535 616 35,000  Level Miami Center
Wed 12:04:51 PM 25.1603 -75.9931 134° Southeast 529 609 35,000  Level Miami Center
Wed 12:05:51 PM 25.0569 -75.8722 133° Southeast 529 609 35,000  Level Miami Center
Wed 12:06:51 PM 24.9433 -75.7472 135° Southeast 529 609 35,000  Level Miami Center
Wed 12:07:51 PM 24.8400 -75.6267 133° Southeast 529 609 35,000  Level Miami Center
Wed 12:08:52 PM 24.7364 -75.5089 134° Southeast 529 609 35,000  Level Miami Center
Wed 12:09:51 PM 24.6308 -75.3889 134° Southeast 529 609 35,000  Level Miami Center
Wed 12:11:00 PM 24.5314 -75.2654 132° Southeast  Level FlightAware Approximate
Wed 12:11:52 PM 24.4236 -75.1517 132° Southeast 529 609 35,000  Level Miami Center
Wed 12:12:52 PM 24.3217 -75.0344 134° Southeast 529 609 35,000  Level Miami Center
Wed 12:13:51 PM 24.2158 -74.9175 135° Southeast 529 609 35,000  Level Miami Center
Wed 12:14:51 PM 24.1117 -74.7986 134° Southeast 529 609 35,000  Level Miami Center
Wed 12:15:51 PM 24.0100 -74.6842 134° Southeast 523 602 35,000  Level Miami Center
Wed 12:16:52 PM 23.9058 -74.5678 134° Southeast 529 609 35,000  Level Miami Center
Wed 12:17:51 PM 23.8122 -74.4650 135° Southeast 529 609 35,000  Level Miami Center
Wed 12:18:51 PM 23.7100 -74.3467 133° Southeast 529 609 35,000  Level Miami Center
Wed 12:19:52 PM 23.6036 -74.2311 135° Southeast 529 609 35,000  Level Miami Center
Wed 12:20:52 PM 23.4989 -74.1131 134° Southeast 529 609 35,000  Level Miami Center
Wed 12:21:52 PM 23.3925 -74.0000 136° Southeast 529 609 35,000  Level Miami Center
Wed 12:22:51 PM 23.2900 -73.8825 134° Southeast 529 609 35,000  Level Miami Center
Wed 12:23:51 PM 23.1831 -73.7650 135° Southeast 529 609 35,000  Level Miami Center
Wed 12:24:51 PM 23.0761 -73.6481 135° Southeast 529 609 35,000  Level Miami Center
Wed 12:25:51 PM 22.9756 -73.5333 134° Southeast 529 609 35,000  Level Miami Center
Wed 12:26:52 PM 22.8683 -73.4167 135° Southeast 529 609 35,000  Level Miami Center
Wed 12:27:51 PM 22.7614 -73.3000 135° Southeast 529 609 35,000  Level Miami Center
Wed 12:28:51 PM 22.6542 -73.1861 136° Southeast 529 609 35,000  Level Miami Center
Wed 12:29:51 PM 22.5403 -73.0611 135° Southeast 526 605 35,000  Level Miami Center
Wed 12:30:52 PM 22.4350 -72.9450 134° Southeast 531 611 35,000  Level Miami Center
Wed 12:31:52 PM 22.3319 -72.8292 134° Southeast 531 611 35,000  Level Miami Center
Wed 12:32:51 PM 22.2244 -72.7183 136° Southeast 531 611 35,000  Level Miami Center
Wed 12:33:51 PM 22.1192 -72.6050 135° Southeast 531 611 35,000  Level Miami Center
Wed 12:34:51 PM 22.0156 -72.4919 135° Southeast 531 611 35,000  Level Miami Center
Wed 12:35:51 PM 21.9100 -72.3792 135° Southeast 526 605 35,000  Level Miami Center
Wed 12:36:51 PM 21.8086 -72.2664 134° Southeast 526 605 35,000  Level Miami Center
Wed 12:37:51 PM 21.7031 -72.1561 136° Southeast 526 605 35,000  Level Miami Center
Wed 12:38:52 PM 21.5994 -72.0461 135° Southeast 526 605 35,000  Level Miami Center
Wed 12:39:51 PM 21.4958 -71.9361 135° Southeast 526 605 35,000  Level Miami Center
Wed 12:40:51 PM 21.3942 -71.8261 135° Southeast 526 605 35,000  Level Miami Center
Wed 12:41:51 PM 21.2992 -71.7272 136° Southeast 526 605 35,000  Level Miami Center
Wed 12:42:52 PM 21.1975 -71.6178 135° Southeast 526 605 35,000  Level Miami Center
Wed 12:43:52 PM 21.0914 -71.5086 136° Southeast 526 605 35,000  Level Miami Center
Wed 12:44:52 PM 20.9897 -71.4014 135° Southeast 526 605 35,000  Level Miami Center
Wed 12:45:51 PM 20.8858 -71.2925 136° Southeast 526 605 35,000  Level Miami Center
Wed 12:46:52 PM 20.7817 -71.1814 135° Southeast 526 605 35,000  Level Miami Center
Wed 12:47:52 PM 20.6797 -71.0750 136° Southeast 526 605 35,000  Level Miami Center
Wed 12:48:52 PM 20.5756 -70.9664 136° Southeast 526 605 35,000  Level Miami Center
Wed 12:49:52 PM 20.4692 -70.8581 136° Southeast 526 605 35,000  Level Miami Center
Wed 12:50:52 PM 20.3531 -70.7661 143° Southeast 526 605 35,000  Level Miami Center
Wed 12:52:00 PM 20.2104 -70.7244 162° South  Level FlightAware Approximate
Wed 12:59:00 PM 19.4742 -70.2155 128° Southeast  Level FlightAware Approximate
Wed 01:00:00 PM 19.3929 -70.1070 128° Southeast  Level FlightAware Approximate
Wed 01:01:00 PM 19.3116 -69.9986 128° Southeast  Level FlightAware Approximate
Wed 01:02:00 PM 19.2197 -69.9066 163° South  Level FlightAware Approximate
Wed 01:03:00 PM 19.0942 -69.8682 164° South  Level FlightAware Approximate
Wed 01:04:00 PM 18.9686 -69.8301 164° South  Level FlightAware Approximate
Wed 01:05:00 PM 18.8431 -69.7915 164° South  Level FlightAware Approximate
Wed 01:06:00 PM 18.7183 -69.7505 162° South  Level FlightAware Approximate
Wed 01:07:00 PM 18.5952 -69.7047 159° South  Level FlightAware Approximate
Wed 01:08:00 PM 18.4690 -69.6709 159° South  Level FlightAware Approximate
Wed 01:09:00 PM 18.4297 -69.6689 159° South  Level Estimated
Wed 01:10:00 PM 18.4297 -69.6689 159° South  Level Estimated
Wed 01:11:00 PM 18.4297 -69.6689 159° South  Level Estimated
Wed 01:12:00 PM 18.4297 -69.6689 159° South  Level Estimated
Wed 01:13:00 PM 18.4297 -69.6689 159° South  Level Estimated

Login

Don't have an account? Register now (free) for customized features, flight alerts, and more!